sensor_id;sensor_type;location;lat;lon;timestamp;P1;durP1;ratioP1;P2;durP2;ratioP2
3207;SDS011;1616;52.394;9.756;2023-06-10T00:02:00;3.40;;;2.57;;
3207;SDS011;1616;52.394;9.756;2023-06-10T00:04:26;3.00;;;2.70;;
3207;SDS011;1616;52.394;9.756;2023-06-10T00:06:52;2.40;;;2.17;;
3207;SDS011;1616;52.394;9.756;2023-06-10T00:09:19;4.37;;;2.20;;
3207;SDS011;1616;52.394;9.756;2023-06-10T00:11:46;6.80;;;2.00;;
3207;SDS011;1616;52.394;9.756;2023-06-10T00:14:12;3.20;;;1.90;;
3207;SDS011;1616;52.394;9.756;2023-06-10T00:16:39;3.03;;;2.23;;
3207;SDS011;1616;52.394;9.756;2023-06-10T00:19:05;5.63;;;2.00;;
3207;SDS011;1616;52.394;9.756;2023-06-10T00:21:31;2.40;;;2.20;;
3207;SDS011;1616;52.394;9.756;2023-06-10T00:24:11;4.50;;;2.10;;
3207;SDS011;1616;52.394;9.756;2023-06-10T00:26:40;6.23;;;1.80;;
3207;SDS011;1616;52.394;9.756;2023-06-10T00:29:06;2.63;;;2.30;;
3207;SDS011;1616;52.394;9.756;2023-06-10T00:31:36;3.40;;;2.03;;
3207;SDS011;1616;52.394;9.756;2023-06-10T00:34:02;5.07;;;2.43;;
3207;SDS011;1616;52.394;9.756;2023-06-10T00:36:29;3.30;;;2.53;;
3207;SDS011;1616;52.394;9.756;2023-06-10T00:38:55;4.70;;;2.20;;
3207;SDS011;1616;52.394;9.756;2023-06-10T00:41:22;4.90;;;2.40;;
3207;SDS011;1616;52.394;9.756;2023-06-10T00:43:48;5.90;;;2.70;;
3207;SDS011;1616;52.394;9.756;2023-06-10T00:46:13;4.90;;;2.67;;
3207;SDS011;1616;52.394;9.756;2023-06-10T00:48:40;3.50;;;2.13;;
3207;SDS011;1616;52.394;9.756;2023-06-10T00:51:08;3.93;;;2.83;;
3207;SDS011;1616;52.394;9.756;2023-06-10T00:53:38;4.90;;;2.10;;
3207;SDS011;1616;52.394;9.756;2023-06-10T00:56:05;4.10;;;2.67;;
3207;SDS011;1616;52.394;9.756;2023-06-10T00:58:31;2.70;;;2.40;;
3207;SDS011;1616;52.394;9.756;2023-06-10T01:00:58;2.20;;;2.00;;
3207;SDS011;1616;52.394;9.756;2023-06-10T01:03:24;2.50;;;2.30;;
3207;SDS011;1616;52.394;9.756;2023-06-10T01:06:29;4.50;;;3.07;;
3207;SDS011;1616;52.394;9.756;2023-06-10T01:09:18;2.90;;;2.70;;
3207;SDS011;1616;52.394;9.756;2023-06-10T01:12:19;3.20;;;2.50;;
3207;SDS011;1616;52.394;9.756;2023-06-10T01:15:02;5.00;;;2.83;;
3207;SDS011;1616;52.394;9.756;2023-06-10T01:17:29;3.70;;;3.00;;
3207;SDS011;1616;52.394;9.756;2023-06-10T01:19:56;3.07;;;2.87;;
3207;SDS011;1616;52.394;9.756;2023-06-10T01:22:25;10.83;;;3.17;;
3207;SDS011;1616;52.394;9.756;2023-06-10T01:24:57;3.43;;;3.07;;
3207;SDS011;1616;52.394;9.756;2023-06-10T01:27:24;2.57;;;2.37;;
3207;SDS011;1616;52.394;9.756;2023-06-10T01:29:54;4.63;;;2.77;;
3207;SDS011;1616;52.394;9.756;2023-06-10T01:32:37;3.50;;;3.30;;
3207;SDS011;1616;52.394;9.756;2023-06-10T01:35:08;3.50;;;2.23;;
3207;SDS011;1616;52.394;9.756;2023-06-10T01:37:34;9.50;;;3.13;;
3207;SDS011;1616;52.394;9.756;2023-06-10T01:40:02;3.63;;;3.00;;
3207;SDS011;1616;52.394;9.756;2023-06-10T01:42:31;3.70;;;2.47;;
3207;SDS011;1616;52.394;9.756;2023-06-10T01:44:57;3.40;;;2.50;;
3207;SDS011;1616;52.394;9.756;2023-06-10T01:47:23;3.03;;;2.40;;
3207;SDS011;1616;52.394;9.756;2023-06-10T01:49:49;4.83;;;2.97;;
3207;SDS011;1616;52.394;9.756;2023-06-10T01:52:15;4.70;;;2.87;;
3207;SDS011;1616;52.394;9.756;2023-06-10T01:54:40;3.80;;;2.53;;
3207;SDS011;1616;52.394;9.756;2023-06-10T01:57:06;8.00;;;2.93;;
3207;SDS011;1616;52.394;9.756;2023-06-10T01:59:32;3.83;;;2.93;;
3207;SDS011;1616;52.394;9.756;2023-06-10T02:02:04;4.10;;;2.97;;
3207;SDS011;1616;52.394;9.756;2023-06-10T02:04:30;12.27;;;3.10;;
3207;SDS011;1616;52.394;9.756;2023-06-10T02:06:56;4.40;;;2.60;;
3207;SDS011;1616;52.394;9.756;2023-06-10T02:09:22;3.03;;;2.83;;
3207;SDS011;1616;52.394;9.756;2023-06-10T02:11:48;4.33;;;3.43;;
3207;SDS011;1616;52.394;9.756;2023-06-10T02:14:14;3.40;;;3.10;;
3207;SDS011;1616;52.394;9.756;2023-06-10T02:16:40;7.93;;;3.30;;
3207;SDS011;1616;52.394;9.756;2023-06-10T02:19:05;4.17;;;3.40;;
3207;SDS011;1616;52.394;9.756;2023-06-10T02:21:32;3.40;;;3.10;;
3207;SDS011;1616;52.394;9.756;2023-06-10T02:23:59;2.70;;;2.50;;
3207;SDS011;1616;52.394;9.756;2023-06-10T02:26:26;2.93;;;2.73;;
3207;SDS011;1616;52.394;9.756;2023-06-10T02:28:52;7.37;;;3.90;;
3207;SDS011;1616;52.394;9.756;2023-06-10T02:31:17;5.43;;;2.57;;
3207;SDS011;1616;52.394;9.756;2023-06-10T02:33:43;4.13;;;3.27;;
3207;SDS011;1616;52.394;9.756;2023-06-10T02:36:09;3.30;;;2.83;;
3207;SDS011;1616;52.394;9.756;2023-06-10T02:38:40;3.17;;;2.87;;
3207;SDS011;1616;52.394;9.756;2023-06-10T02:41:06;3.53;;;3.23;;
3207;SDS011;1616;52.394;9.756;2023-06-10T02:43:32;4.83;;;3.10;;
3207;SDS011;1616;52.394;9.756;2023-06-10T02:45:58;4.27;;;3.90;;
3207;SDS011;1616;52.394;9.756;2023-06-10T02:48:23;3.00;;;2.67;;
3207;SDS011;1616;52.394;9.756;2023-06-10T02:50:49;6.13;;;4.17;;
3207;SDS011;1616;52.394;9.756;2023-06-10T02:53:15;4.67;;;3.60;;
3207;SDS011;1616;52.394;9.756;2023-06-10T02:55:41;14.03;;;3.60;;
3207;SDS011;1616;52.394;9.756;2023-06-10T02:58:07;3.27;;;2.97;;
3207;SDS011;1616;52.394;9.756;2023-06-10T03:00:33;5.30;;;3.83;;
3207;SDS011;1616;52.394;9.756;2023-06-10T03:02:59;4.37;;;3.50;;
3207;SDS011;1616;52.394;9.756;2023-06-10T03:05:28;5.70;;;3.47;;
3207;SDS011;1616;52.394;9.756;2023-06-10T03:07:56;4.93;;;3.90;;
3207;SDS011;1616;52.394;9.756;2023-06-10T03:10:22;3.80;;;3.50;;
3207;SDS011;1616;52.394;9.756;2023-06-10T03:12:47;4.63;;;4.13;;
3207;SDS011;1616;52.394;9.756;2023-06-10T03:15:13;6.70;;;3.97;;
3207;SDS011;1616;52.394;9.756;2023-06-10T03:17:39;4.77;;;3.83;;
3207;SDS011;1616;52.394;9.756;2023-06-10T03:20:05;8.77;;;3.77;;
3207;SDS011;1616;52.394;9.756;2023-06-10T03:22:33;6.70;;;3.83;;
3207;SDS011;1616;52.394;9.756;2023-06-10T03:24:58;9.67;;;4.00;;
3207;SDS011;1616;52.394;9.756;2023-06-10T03:27:25;5.53;;;3.30;;
3207;SDS011;1616;52.394;9.756;2023-06-10T03:29:50;10.10;;;4.33;;
3207;SDS011;1616;52.394;9.756;2023-06-10T03:32:16;5.87;;;4.40;;
3207;SDS011;1616;52.394;9.756;2023-06-10T03:34:42;7.00;;;4.10;;
3207;SDS011;1616;52.394;9.756;2023-06-10T03:37:10;4.93;;;4.50;;
3207;SDS011;1616;52.394;9.756;2023-06-10T03:39:36;18.07;;;5.70;;
3207;SDS011;1616;52.394;9.756;2023-06-10T03:42:01;4.83;;;3.90;;
3207;SDS011;1616;52.394;9.756;2023-06-10T03:44:27;4.17;;;3.80;;
3207;SDS011;1616;52.394;9.756;2023-06-10T03:46:53;6.63;;;3.40;;
3207;SDS011;1616;52.394;9.756;2023-06-10T03:49:20;9.23;;;3.70;;
3207;SDS011;1616;52.394;9.756;2023-06-10T03:51:46;4.57;;;4.17;;
3207;SDS011;1616;52.394;9.756;2023-06-10T03:54:11;4.40;;;3.33;;
3207;SDS011;1616;52.394;9.756;2023-06-10T03:56:37;5.00;;;4.30;;
3207;SDS011;1616;52.394;9.756;2023-06-10T03:59:02;9.57;;;4.93;;
3207;SDS011;1616;52.394;9.756;2023-06-10T04:01:28;5.33;;;4.77;;
3207;SDS011;1616;52.394;9.756;2023-06-10T04:03:54;6.80;;;3.97;;
3207;SDS011;1616;52.394;9.756;2023-06-10T04:06:20;7.13;;;5.27;;
3207;SDS011;1616;52.394;9.756;2023-06-10T04:08:47;4.90;;;3.90;;
3207;SDS011;1616;52.394;9.756;2023-06-10T04:11:13;5.77;;;4.07;;
3207;SDS011;1616;52.394;9.756;2023-06-10T04:13:39;7.70;;;4.40;;
3207;SDS011;1616;52.394;9.756;2023-06-10T04:16:05;5.90;;;4.03;;
3207;SDS011;1616;52.394;9.756;2023-06-10T04:18:31;6.50;;;4.00;;
3207;SDS011;1616;52.394;9.756;2023-06-10T04:20:56;9.87;;;4.33;;
3207;SDS011;1616;52.394;9.756;2023-06-10T04:23:22;7.63;;;5.40;;
3207;SDS011;1616;52.394;9.756;2023-06-10T04:25:47;8.93;;;4.30;;
3207;SDS011;1616;52.394;9.756;2023-06-10T04:28:13;12.00;;;6.27;;
3207;SDS011;1616;52.394;9.756;2023-06-10T04:30:39;12.43;;;5.37;;
3207;SDS011;1616;52.394;9.756;2023-06-10T04:33:04;7.80;;;4.63;;
3207;SDS011;1616;52.394;9.756;2023-06-10T04:35:32;9.20;;;4.97;;
3207;SDS011;1616;52.394;9.756;2023-06-10T04:37:57;13.80;;;6.07;;
3207;SDS011;1616;52.394;9.756;2023-06-10T04:40:23;4.73;;;4.33;;
3207;SDS011;1616;52.394;9.756;2023-06-10T04:42:48;6.83;;;6.00;;
3207;SDS011;1616;52.394;9.756;2023-06-10T04:45:14;6.20;;;5.60;;
3207;SDS011;1616;52.394;9.756;2023-06-10T04:47:40;5.20;;;4.73;;
3207;SDS011;1616;52.394;9.756;2023-06-10T04:50:06;5.47;;;4.90;;
3207;SDS011;1616;52.394;9.756;2023-06-10T04:52:32;7.03;;;5.93;;
3207;SDS011;1616;52.394;9.756;2023-06-10T04:54:58;6.13;;;4.30;;
3207;SDS011;1616;52.394;9.756;2023-06-10T04:57:24;6.70;;;5.20;;
3207;SDS011;1616;52.394;9.756;2023-06-10T04:59:51;11.37;;;6.30;;
3207;SDS011;1616;52.394;9.756;2023-06-10T05:02:17;7.50;;;6.30;;
3207;SDS011;1616;52.394;9.756;2023-06-10T05:04:43;6.80;;;6.20;;
3207;SDS011;1616;52.394;9.756;2023-06-10T05:07:09;8.33;;;6.87;;
3207;SDS011;1616;52.394;9.756;2023-06-10T05:09:35;7.43;;;6.73;;
3207;SDS011;1616;52.394;9.756;2023-06-10T05:12:00;9.77;;;6.73;;
3207;SDS011;1616;52.394;9.756;2023-06-10T05:14:27;10.40;;;5.60;;
3207;SDS011;1616;52.394;9.756;2023-06-10T05:16:52;8.23;;;4.90;;
3207;SDS011;1616;52.394;9.756;2023-06-10T05:19:18;14.60;;;6.60;;
3207;SDS011;1616;52.394;9.756;2023-06-10T05:21:44;6.10;;;5.60;;
3207;SDS011;1616;52.394;9.756;2023-06-10T05:24:10;6.00;;;5.23;;
3207;SDS011;1616;52.394;9.756;2023-06-10T05:26:36;6.93;;;6.30;;
3207;SDS011;1616;52.394;9.756;2023-06-10T05:29:03;6.70;;;5.50;;
3207;SDS011;1616;52.394;9.756;2023-06-10T05:31:30;9.87;;;6.07;;
3207;SDS011;1616;52.394;9.756;2023-06-10T05:33:55;6.83;;;5.00;;
3207;SDS011;1616;52.394;9.756;2023-06-10T05:36:21;10.60;;;6.10;;
3207;SDS011;1616;52.394;9.756;2023-06-10T05:38:47;5.53;;;4.03;;
3207;SDS011;1616;52.394;9.756;2023-06-10T05:41:12;4.33;;;3.93;;
3207;SDS011;1616;52.394;9.756;2023-06-10T05:43:38;5.40;;;5.00;;
3207;SDS011;1616;52.394;9.756;2023-06-10T05:46:03;7.30;;;4.37;;
3207;SDS011;1616;52.394;9.756;2023-06-10T05:48:29;5.40;;;4.43;;
3207;SDS011;1616;52.394;9.756;2023-06-10T05:50:55;7.17;;;3.87;;
3207;SDS011;1616;52.394;9.756;2023-06-10T05:53:21;10.03;;;4.23;;
3207;SDS011;1616;52.394;9.756;2023-06-10T05:55:46;5.23;;;4.30;;
3207;SDS011;1616;52.394;9.756;2023-06-10T05:58:14;4.47;;;3.10;;
3207;SDS011;1616;52.394;9.756;2023-06-10T06:00:40;3.97;;;3.67;;
3207;SDS011;1616;52.394;9.756;2023-06-10T06:03:07;3.83;;;3.53;;
3207;SDS011;1616;52.394;9.756;2023-06-10T06:05:36;6.77;;;4.23;;
3207;SDS011;1616;52.394;9.756;2023-06-10T06:08:03;5.20;;;2.63;;
3207;SDS011;1616;52.394;9.756;2023-06-10T06:10:30;3.30;;;2.60;;
3207;SDS011;1616;52.394;9.756;2023-06-10T06:12:56;4.17;;;2.70;;
3207;SDS011;1616;52.394;9.756;2023-06-10T06:15:21;5.63;;;3.60;;
3207;SDS011;1616;52.394;9.756;2023-06-10T06:17:47;4.03;;;2.50;;
3207;SDS011;1616;52.394;9.756;2023-06-10T06:20:13;5.90;;;3.50;;
3207;SDS011;1616;52.394;9.756;2023-06-10T06:22:39;7.47;;;3.17;;
3207;SDS011;1616;52.394;9.756;2023-06-10T06:25:04;8.70;;;2.93;;
3207;SDS011;1616;52.394;9.756;2023-06-10T06:27:31;6.30;;;3.77;;
3207;SDS011;1616;52.394;9.756;2023-06-10T06:29:56;3.10;;;2.80;;
3207;SDS011;1616;52.394;9.756;2023-06-10T06:32:22;3.23;;;2.77;;
3207;SDS011;1616;52.394;9.756;2023-06-10T06:34:49;2.23;;;2.03;;
3207;SDS011;1616;52.394;9.756;2023-06-10T06:37:20;4.10;;;3.50;;
3207;SDS011;1616;52.394;9.756;2023-06-10T06:39:47;3.87;;;3.57;;
3207;SDS011;1616;52.394;9.756;2023-06-10T06:42:13;3.17;;;2.93;;
3207;SDS011;1616;52.394;9.756;2023-06-10T06:44:38;3.80;;;3.20;;
3207;SDS011;1616;52.394;9.756;2023-06-10T06:47:04;5.10;;;2.97;;
3207;SDS011;1616;52.394;9.756;2023-06-10T06:49:30;7.10;;;4.10;;
3207;SDS011;1616;52.394;9.756;2023-06-10T06:51:56;5.73;;;4.23;;
3207;SDS011;1616;52.394;9.756;2023-06-10T06:54:21;3.37;;;3.07;;
3207;SDS011;1616;52.394;9.756;2023-06-10T06:56:49;3.43;;;3.10;;
3207;SDS011;1616;52.394;9.756;2023-06-10T06:59:17;5.23;;;3.20;;
3207;SDS011;1616;52.394;9.756;2023-06-10T07:01:44;6.53;;;4.27;;
3207;SDS011;1616;52.394;9.756;2023-06-10T07:04:11;3.63;;;3.10;;
3207;SDS011;1616;52.394;9.756;2023-06-10T07:06:37;3.97;;;3.60;;
3207;SDS011;1616;52.394;9.756;2023-06-10T07:09:03;3.43;;;3.13;;
3207;SDS011;1616;52.394;9.756;2023-06-10T07:11:30;5.63;;;3.60;;
3207;SDS011;1616;52.394;9.756;2023-06-10T07:13:55;3.03;;;2.83;;
3207;SDS011;1616;52.394;9.756;2023-06-10T07:16:22;8.00;;;3.60;;
3207;SDS011;1616;52.394;9.756;2023-06-10T07:18:48;3.60;;;3.00;;
3207;SDS011;1616;52.394;9.756;2023-06-10T07:21:13;3.50;;;3.20;;
3207;SDS011;1616;52.394;9.756;2023-06-10T07:23:42;3.57;;;3.27;;
3207;SDS011;1616;52.394;9.756;2023-06-10T07:26:09;3.97;;;3.00;;
3207;SDS011;1616;52.394;9.756;2023-06-10T07:28:36;2.87;;;2.67;;
3207;SDS011;1616;52.394;9.756;2023-06-10T07:31:02;3.10;;;2.77;;
3207;SDS011;1616;52.394;9.756;2023-06-10T07:33:28;5.03;;;3.00;;
3207;SDS011;1616;52.394;9.756;2023-06-10T07:35:54;3.57;;;3.17;;
3207;SDS011;1616;52.394;9.756;2023-06-10T07:38:20;2.87;;;2.63;;
3207;SDS011;1616;52.394;9.756;2023-06-10T07:40:46;3.43;;;3.13;;
3207;SDS011;1616;52.394;9.756;2023-06-10T07:43:12;7.73;;;3.60;;
3207;SDS011;1616;52.394;9.756;2023-06-10T07:45:40;3.43;;;3.13;;
3207;SDS011;1616;52.394;9.756;2023-06-10T07:48:06;2.83;;;2.63;;
3207;SDS011;1616;52.394;9.756;2023-06-10T07:50:32;6.53;;;3.53;;
3207;SDS011;1616;52.394;9.756;2023-06-10T07:52:58;7.93;;;3.10;;
3207;SDS011;1616;52.394;9.756;2023-06-10T07:55:24;4.67;;;3.20;;
3207;SDS011;1616;52.394;9.756;2023-06-10T07:57:51;3.60;;;3.40;;
3207;SDS011;1616;52.394;9.756;2023-06-10T08:00:17;3.83;;;3.10;;
3207;SDS011;1616;52.394;9.756;2023-06-10T08:02:43;4.33;;;3.17;;
3207;SDS011;1616;52.394;9.756;2023-06-10T08:05:09;3.60;;;3.40;;
3207;SDS011;1616;52.394;9.756;2023-06-10T08:07:34;5.63;;;3.10;;
3207;SDS011;1616;52.394;9.756;2023-06-10T08:10:00;2.30;;;2.10;;
3207;SDS011;1616;52.394;9.756;2023-06-10T08:12:27;4.43;;;2.93;;
3207;SDS011;1616;52.394;9.756;2023-06-10T08:14:52;6.23;;;3.03;;
3207;SDS011;1616;52.394;9.756;2023-06-10T08:17:19;3.13;;;2.53;;
3207;SDS011;1616;52.394;9.756;2023-06-10T08:19:44;4.70;;;3.53;;
3207;SDS011;1616;52.394;9.756;2023-06-10T08:22:10;3.40;;;2.47;;
3207;SDS011;1616;52.394;9.756;2023-06-10T08:24:35;5.20;;;2.70;;
3207;SDS011;1616;52.394;9.756;2023-06-10T08:27:01;8.60;;;2.83;;
3207;SDS011;1616;52.394;9.756;2023-06-10T08:29:27;4.67;;;2.83;;
3207;SDS011;1616;52.394;9.756;2023-06-10T08:31:52;4.47;;;2.93;;
3207;SDS011;1616;52.394;9.756;2023-06-10T08:34:18;3.63;;;2.73;;
3207;SDS011;1616;52.394;9.756;2023-06-10T08:36:44;4.27;;;3.20;;
3207;SDS011;1616;52.394;9.756;2023-06-10T08:39:10;4.40;;;3.43;;
3207;SDS011;1616;52.394;9.756;2023-06-10T08:41:36;2.57;;;2.37;;
3207;SDS011;1616;52.394;9.756;2023-06-10T08:44:09;2.73;;;2.53;;
3207;SDS011;1616;52.394;9.756;2023-06-10T08:46:44;4.82;;;3.20;;
3207;SDS011;1616;52.394;9.756;2023-06-10T08:49:11;4.63;;;2.75;;
3207;SDS011;1616;52.394;9.756;2023-06-10T08:51:42;5.10;;;2.30;;
3207;SDS011;1616;52.394;9.756;2023-06-10T08:54:13;2.60;;;2.40;;
3207;SDS011;1616;52.394;9.756;2023-06-10T08:56:44;3.75;;;2.75;;
3207;SDS011;1616;52.394;9.756;2023-06-10T08:59:15;4.15;;;2.92;;
3207;SDS011;1616;52.394;9.756;2023-06-10T09:01:42;2.67;;;2.45;;
3207;SDS011;1616;52.394;9.756;2023-06-10T09:04:09;3.58;;;2.38;;
3207;SDS011;1616;52.394;9.756;2023-06-10T09:06:36;2.65;;;2.45;;
3207;SDS011;1616;52.394;9.756;2023-06-10T09:09:03;5.35;;;2.17;;
3207;SDS011;1616;52.394;9.756;2023-06-10T09:11:31;3.10;;;2.30;;
3207;SDS011;1616;52.394;9.756;2023-06-10T09:13:57;3.78;;;1.88;;
3207;SDS011;1616;52.394;9.756;2023-06-10T09:16:24;12.13;;;2.58;;
3207;SDS011;1616;52.394;9.756;2023-06-10T09:18:50;5.22;;;2.10;;
3207;SDS011;1616;52.394;9.756;2023-06-10T09:21:21;2.45;;;2.25;;
3207;SDS011;1616;52.394;9.756;2023-06-10T09:23:47;2.42;;;2.22;;
3207;SDS011;1616;52.394;9.756;2023-06-10T09:26:13;2.60;;;2.40;;
3207;SDS011;1616;52.394;9.756;2023-06-10T09:28:39;2.35;;;2.15;;
3207;SDS011;1616;52.394;9.756;2023-06-10T09:31:08;2.90;;;2.30;;
3207;SDS011;1616;52.394;9.756;2023-06-10T09:33:38;2.67;;;1.83;;
3207;SDS011;1616;52.394;9.756;2023-06-10T09:36:04;4.72;;;1.80;;
3207;SDS011;1616;52.394;9.756;2023-06-10T09:38:31;4.80;;;1.90;;
3207;SDS011;1616;52.394;9.756;2023-06-10T09:40:58;2.92;;;2.05;;
3207;SDS011;1616;52.394;9.756;2023-06-10T09:43:38;1.98;;;1.85;;
3207;SDS011;1616;52.394;9.756;2023-06-10T09:46:04;2.30;;;2.20;;
3207;SDS011;1616;52.394;9.756;2023-06-10T09:48:30;4.38;;;1.92;;
3207;SDS011;1616;52.394;9.756;2023-06-10T09:50:59;2.85;;;2.08;;
3207;SDS011;1616;52.394;9.756;2023-06-10T09:53:25;2.22;;;2.13;;
3207;SDS011;1616;52.394;9.756;2023-06-10T09:55:51;5.65;;;1.90;;
3207;SDS011;1616;52.394;9.756;2023-06-10T09:58:17;2.25;;;1.95;;
3207;SDS011;1616;52.394;9.756;2023-06-10T10:00:44;5.75;;;2.45;;
3207;SDS011;1616;52.394;9.756;2023-06-10T10:03:24;1.92;;;1.83;;
3207;SDS011;1616;52.394;9.756;2023-06-10T10:05:51;3.97;;;2.20;;
3207;SDS011;1616;52.394;9.756;2023-06-10T10:08:24;4.10;;;2.17;;
3207;SDS011;1616;52.394;9.756;2023-06-10T10:10:50;2.65;;;1.85;;
3207;SDS011;1616;52.394;9.756;2023-06-10T10:13:15;2.25;;;2.03;;
3207;SDS011;1616;52.394;9.756;2023-06-10T10:15:42;2.15;;;1.95;;
3207;SDS011;1616;52.394;9.756;2023-06-10T10:18:10;2.25;;;2.05;;
3207;SDS011;1616;52.394;9.756;2023-06-10T10:20:41;5.28;;;2.20;;
3207;SDS011;1616;52.394;9.756;2023-06-10T10:23:12;3.38;;;2.10;;
3207;SDS011;1616;52.394;9.756;2023-06-10T10:25:43;3.53;;;1.95;;
3207;SDS011;1616;52.394;9.756;2023-06-10T10:28:16;3.28;;;2.05;;
3207;SDS011;1616;52.394;9.756;2023-06-10T10:30:47;2.17;;;2.00;;
3207;SDS011;1616;52.394;9.756;2023-06-10T10:33:27;2.58;;;2.25;;
3207;SDS011;1616;52.394;9.756;2023-06-10T10:36:00;3.53;;;2.20;;
3207;SDS011;1616;52.394;9.756;2023-06-10T10:38:26;2.65;;;1.95;;
3207;SDS011;1616;52.394;9.756;2023-06-10T10:40:53;2.50;;;2.10;;
3207;SDS011;1616;52.394;9.756;2023-06-10T10:43:24;2.45;;;2.30;;
3207;SDS011;1616;52.394;9.756;2023-06-10T10:46:08;3.78;;;2.30;;
3207;SDS011;1616;52.394;9.756;2023-06-10T10:48:38;10.77;;;3.40;;
3207;SDS011;1616;52.394;9.756;2023-06-10T10:51:04;3.17;;;2.88;;
3207;SDS011;1616;52.394;9.756;2023-06-10T10:53:29;4.47;;;2.60;;
3207;SDS011;1616;52.394;9.756;2023-06-10T10:55:59;5.20;;;2.22;;
3207;SDS011;1616;52.394;9.756;2023-06-10T10:58:30;2.65;;;2.45;;
3207;SDS011;1616;52.394;9.756;2023-06-10T11:00:57;8.65;;;2.67;;
3207;SDS011;1616;52.394;9.756;2023-06-10T11:03:24;2.30;;;2.13;;
3207;SDS011;1616;52.394;9.756;2023-06-10T11:05:54;7.97;;;2.85;;
3207;SDS011;1616;52.394;9.756;2023-06-10T11:10:57;2.72;;;2.45;;
3207;SDS011;1616;52.394;9.756;2023-06-10T11:13:23;5.45;;;2.45;;
3207;SDS011;1616;52.394;9.756;2023-06-10T11:15:51;4.00;;;2.65;;
3207;SDS011;1616;52.394;9.756;2023-06-10T11:25:51;13.48;;;2.85;;
3207;SDS011;1616;52.394;9.756;2023-06-10T11:28:34;3.20;;;3.00;;
3207;SDS011;1616;52.394;9.756;2023-06-10T11:30:59;4.15;;;3.63;;
3207;SDS011;1616;52.394;9.756;2023-06-10T11:33:25;3.30;;;2.70;;
3207;SDS011;1616;52.394;9.756;2023-06-10T11:35:51;6.35;;;2.97;;
3207;SDS011;1616;52.394;9.756;2023-06-10T11:38:17;3.20;;;2.70;;
3207;SDS011;1616;52.394;9.756;2023-06-10T11:40:49;3.17;;;2.88;;
3207;SDS011;1616;52.394;9.756;2023-06-10T11:43:18;3.38;;;3.08;;
3207;SDS011;1616;52.394;9.756;2023-06-10T11:45:45;3.47;;;3.28;;
3207;SDS011;1616;52.394;9.756;2023-06-10T11:48:11;3.30;;;3.10;;
3207;SDS011;1616;52.394;9.756;2023-06-10T11:50:37;164.20;;;9.93;;
3207;SDS011;1616;52.394;9.756;2023-06-10T11:53:03;3.38;;;3.00;;
3207;SDS011;1616;52.394;9.756;2023-06-10T11:55:45;4.38;;;2.65;;
3207;SDS011;1616;52.394;9.756;2023-06-10T11:58:16;5.97;;;3.65;;
3207;SDS011;1616;52.394;9.756;2023-06-10T12:00:46;2.60;;;2.40;;
3207;SDS011;1616;52.394;9.756;2023-06-10T12:03:12;6.93;;;3.15;;
3207;SDS011;1616;52.394;9.756;2023-06-10T12:05:38;2.85;;;2.65;;
3207;SDS011;1616;52.394;9.756;2023-06-10T12:08:11;3.60;;;3.40;;
3207;SDS011;1616;52.394;9.756;2023-06-10T12:10:41;3.70;;;3.25;;
3207;SDS011;1616;52.394;9.756;2023-06-10T12:13:08;6.88;;;3.53;;
3207;SDS011;1616;52.394;9.756;2023-06-10T12:15:34;2.92;;;2.72;;
3207;SDS011;1616;52.394;9.756;2023-06-10T12:18:00;4.80;;;2.80;;
3207;SDS011;1616;52.394;9.756;2023-06-10T12:20:27;4.68;;;3.10;;
3207;SDS011;1616;52.394;9.756;2023-06-10T12:22:54;5.30;;;3.30;;
3207;SDS011;1616;52.394;9.756;2023-06-10T12:25:27;5.07;;;3.28;;
3207;SDS011;1616;52.394;9.756;2023-06-10T12:27:54;5.00;;;2.92;;
3207;SDS011;1616;52.394;9.756;2023-06-10T12:30:23;3.35;;;3.08;;
3207;SDS011;1616;52.394;9.756;2023-06-10T12:32:50;2.95;;;2.75;;
3207;SDS011;1616;52.394;9.756;2023-06-10T12:35:18;4.25;;;3.78;;
3207;SDS011;1616;52.394;9.756;2023-06-10T12:40:29;4.25;;;3.95;;
3207;SDS011;1616;52.394;9.756;2023-06-10T12:42:57;4.45;;;4.05;;
3207;SDS011;1616;52.394;9.756;2023-06-10T12:45:29;3.95;;;3.50;;
3207;SDS011;1616;52.394;9.756;2023-06-10T12:48:09;3.35;;;3.03;;
3207;SDS011;1616;52.394;9.756;2023-06-10T12:50:50;7.60;;;3.65;;
3207;SDS011;1616;52.394;9.756;2023-06-10T12:53:18;4.10;;;3.80;;
3207;SDS011;1616;52.394;9.756;2023-06-10T12:55:44;5.97;;;3.78;;
3207;SDS011;1616;52.394;9.756;2023-06-10T12:58:10;18.95;;;3.83;;
3207;SDS011;1616;52.394;9.756;2023-06-10T13:00:37;7.05;;;4.70;;
3207;SDS011;1616;52.394;9.756;2023-06-10T13:03:03;8.60;;;5.00;;
3207;SDS011;1616;52.394;9.756;2023-06-10T13:05:30;6.55;;;6.15;;
3207;SDS011;1616;52.394;9.756;2023-06-10T13:07:58;7.38;;;6.97;;
3207;SDS011;1616;52.394;9.756;2023-06-10T13:10:24;5.80;;;5.38;;
3207;SDS011;1616;52.394;9.756;2023-06-10T13:12:50;4.30;;;4.00;;
3207;SDS011;1616;52.394;9.756;2023-06-10T13:15:16;4.18;;;3.88;;
3207;SDS011;1616;52.394;9.756;2023-06-10T13:17:43;18.50;;;4.82;;
3207;SDS011;1616;52.394;9.756;2023-06-10T13:20:10;4.60;;;4.22;;
3207;SDS011;1616;52.394;9.756;2023-06-10T13:22:36;4.75;;;3.85;;
3207;SDS011;1616;52.394;9.756;2023-06-10T13:25:02;4.35;;;3.95;;
3207;SDS011;1616;52.394;9.756;2023-06-10T13:27:29;4.00;;;3.73;;
3207;SDS011;1616;52.394;9.756;2023-06-10T13:29:55;6.60;;;3.90;;
3207;SDS011;1616;52.394;9.756;2023-06-10T13:32:21;4.63;;;4.43;;
3207;SDS011;1616;52.394;9.756;2023-06-10T13:34:47;4.70;;;4.37;;
3207;SDS011;1616;52.394;9.756;2023-06-10T13:37:14;6.03;;;5.30;;
3207;SDS011;1616;52.394;9.756;2023-06-10T13:39:42;7.53;;;5.20;;
3207;SDS011;1616;52.394;9.756;2023-06-10T13:42:08;5.43;;;4.13;;
3207;SDS011;1616;52.394;9.756;2023-06-10T13:44:34;5.07;;;4.50;;
3207;SDS011;1616;52.394;9.756;2023-06-10T13:47:04;4.63;;;4.33;;
3207;SDS011;1616;52.394;9.756;2023-06-10T13:49:30;4.43;;;4.17;;
3207;SDS011;1616;52.394;9.756;2023-06-10T13:51:56;4.47;;;4.17;;
3207;SDS011;1616;52.394;9.756;2023-06-10T13:54:22;4.63;;;4.20;;
3207;SDS011;1616;52.394;9.756;2023-06-10T13:56:47;5.80;;;5.43;;
3207;SDS011;1616;52.394;9.756;2023-06-10T13:59:13;7.23;;;5.07;;
3207;SDS011;1616;52.394;9.756;2023-06-10T14:01:39;9.10;;;4.40;;
3207;SDS011;1616;52.394;9.756;2023-06-10T14:04:05;4.80;;;4.40;;
3207;SDS011;1616;52.394;9.756;2023-06-10T14:06:32;5.20;;;4.80;;
3207;SDS011;1616;52.394;9.756;2023-06-10T14:08:59;5.17;;;3.80;;
3207;SDS011;1616;52.394;9.756;2023-06-10T14:11:25;5.17;;;4.77;;
3207;SDS011;1616;52.394;9.756;2023-06-10T14:13:51;5.70;;;4.53;;
3207;SDS011;1616;52.394;9.756;2023-06-10T14:16:16;5.60;;;5.30;;
3207;SDS011;1616;52.394;9.756;2023-06-10T14:18:42;6.10;;;5.47;;
3207;SDS011;1616;52.394;9.756;2023-06-10T14:21:07;5.00;;;4.57;;
3207;SDS011;1616;52.394;9.756;2023-06-10T14:23:33;5.10;;;4.80;;
3207;SDS011;1616;52.394;9.756;2023-06-10T14:25:59;5.47;;;5.07;;
3207;SDS011;1616;52.394;9.756;2023-06-10T14:28:25;4.80;;;4.27;;
3207;SDS011;1616;52.394;9.756;2023-06-10T14:30:52;5.13;;;4.50;;
3207;SDS011;1616;52.394;9.756;2023-06-10T14:33:18;4.67;;;4.47;;
3207;SDS011;1616;52.394;9.756;2023-06-10T14:35:44;5.63;;;5.10;;
3207;SDS011;1616;52.394;9.756;2023-06-10T14:38:09;6.17;;;4.20;;
3207;SDS011;1616;52.394;9.756;2023-06-10T14:40:35;7.63;;;4.80;;
3207;SDS011;1616;52.394;9.756;2023-06-10T14:43:01;4.27;;;3.97;;
3207;SDS011;1616;52.394;9.756;2023-06-10T14:45:29;7.23;;;5.47;;
3207;SDS011;1616;52.394;9.756;2023-06-10T14:47:55;6.00;;;5.30;;
3207;SDS011;1616;52.394;9.756;2023-06-10T14:50:20;4.83;;;4.43;;
3207;SDS011;1616;52.394;9.756;2023-06-10T14:52:46;4.93;;;4.60;;
3207;SDS011;1616;52.394;9.756;2023-06-10T14:55:11;4.83;;;4.33;;
3207;SDS011;1616;52.394;9.756;2023-06-10T14:57:37;9.53;;;4.47;;
3207;SDS011;1616;52.394;9.756;2023-06-10T15:00:03;5.27;;;4.73;;
3207;SDS011;1616;52.394;9.756;2023-06-10T15:02:29;4.80;;;4.40;;
3207;SDS011;1616;52.394;9.756;2023-06-10T15:04:54;11.90;;;4.57;;
3207;SDS011;1616;52.394;9.756;2023-06-10T15:07:20;12.87;;;4.77;;
3207;SDS011;1616;52.394;9.756;2023-06-10T15:09:45;4.23;;;3.93;;
3207;SDS011;1616;52.394;9.756;2023-06-10T15:12:11;5.53;;;5.13;;
3207;SDS011;1616;52.394;9.756;2023-06-10T15:14:37;5.37;;;4.97;;
3207;SDS011;1616;52.394;9.756;2023-06-10T15:17:03;5.00;;;4.70;;
3207;SDS011;1616;52.394;9.756;2023-06-10T15:19:29;5.73;;;4.93;;
3207;SDS011;1616;52.394;9.756;2023-06-10T15:21:54;7.97;;;4.37;;
3207;SDS011;1616;52.394;9.756;2023-06-10T15:24:20;4.70;;;4.33;;
3207;SDS011;1616;52.394;9.756;2023-06-10T15:26:46;5.03;;;4.30;;
3207;SDS011;1616;52.394;9.756;2023-06-10T15:29:11;4.50;;;4.20;;